KDKX

Knoxville Downtown Island Airport

Knoxville, Tennessee, USA
METAR KDKX 152255Z AUTO 27010G18KT 10SM OVC014 03/01 A3002 RMK A01
Observed Flight Rules
Nov-15 @ 22:55 UTC (17 minutes ago) Marginal Visual Flight Rules
Wind Visibility Clouds
270° at 10 knots
 Gusting to 18 knots
10 miles
  • Overcast at 1,400' AGL
Temperatures Readings
Current 3°C / 37°F
Dewpoint 1°C / 34°F
Humidity 87%
Altimeter 30.02" Hg
Pressure 1017 hPa
Elevation 254
METAR KDKX 152255Z AUTO 27010G18KT 10SM OVC014 03/01 A3002 RMK A01
Observed Flight Rules
Nov-15 @ 22:55 UTC
(17 minutes ago)
MVFR
Wind Visibility
270° at 10 knots
 Gusting to 18 knots
10 miles
Clouds
  • Overcast at 1,400' AGL
Temperature Dewpoint
3°C / 37°F 1°C / 34°F
Humidity Altimeter Pressure
87% 30.02" Hg 1017 hPa